sensor_id;sensor_type;location;lat;lon;timestamp;P1;durP1;ratioP1;P2;durP2;ratioP2
44486;SDS011;30191;50.908;6.962;2022-10-14T00:01:48;8.70;;;4.60;;
44486;SDS011;30191;50.908;6.962;2022-10-14T00:04:14;7.53;;;4.78;;
44486;SDS011;30191;50.908;6.962;2022-10-14T00:06:40;7.63;;;4.80;;
44486;SDS011;30191;50.908;6.962;2022-10-14T00:09:06;6.05;;;5.15;;
44486;SDS011;30191;50.908;6.962;2022-10-14T00:11:34;8.35;;;5.15;;
44486;SDS011;30191;50.908;6.962;2022-10-14T00:14:03;5.88;;;4.70;;
44486;SDS011;30191;50.908;6.962;2022-10-14T00:16:35;5.97;;;4.93;;
44486;SDS011;30191;50.908;6.962;2022-10-14T00:19:03;8.98;;;4.88;;
44486;SDS011;30191;50.908;6.962;2022-10-14T00:21:29;7.07;;;5.15;;
44486;SDS011;30191;50.908;6.962;2022-10-14T00:23:56;9.15;;;5.20;;
44486;SDS011;30191;50.908;6.962;2022-10-14T00:26:26;5.93;;;4.70;;
44486;SDS011;30191;50.908;6.962;2022-10-14T00:28:55;5.85;;;4.80;;
44486;SDS011;30191;50.908;6.962;2022-10-14T00:31:22;9.30;;;4.82;;
44486;SDS011;30191;50.908;6.962;2022-10-14T00:33:47;6.03;;;4.90;;
44486;SDS011;30191;50.908;6.962;2022-10-14T00:36:14;10.77;;;5.20;;
44486;SDS011;30191;50.908;6.962;2022-10-14T00:38:41;8.05;;;5.30;;
44486;SDS011;30191;50.908;6.962;2022-10-14T00:41:09;11.20;;;5.45;;
44486;SDS011;30191;50.908;6.962;2022-10-14T00:46:31;6.25;;;4.80;;
44486;SDS011;30191;50.908;6.962;2022-10-14T00:49:07;7.93;;;5.00;;
44486;SDS011;30191;50.908;6.962;2022-10-14T00:52:21;8.00;;;4.75;;
44486;SDS011;30191;50.908;6.962;2022-10-14T00:54:53;7.70;;;5.13;;
44486;SDS011;30191;50.908;6.962;2022-10-14T00:57:24;8.85;;;5.07;;
44486;SDS011;30191;50.908;6.962;2022-10-14T00:59:51;6.85;;;5.00;;
44486;SDS011;30191;50.908;6.962;2022-10-14T01:02:20;7.88;;;5.20;;
44486;SDS011;30191;50.908;6.962;2022-10-14T01:04:46;9.40;;;4.95;;
44486;SDS011;30191;50.908;6.962;2022-10-14T01:09:49;7.18;;;4.90;;
44486;SDS011;30191;50.908;6.962;2022-10-14T01:12:26;10.85;;;5.53;;
44486;SDS011;30191;50.908;6.962;2022-10-14T01:15:37;9.13;;;5.40;;
44486;SDS011;30191;50.908;6.962;2022-10-14T01:24:00;8.88;;;5.60;;
44486;SDS011;30191;50.908;6.962;2022-10-14T01:32:37;8.50;;;5.55;;
44486;SDS011;30191;50.908;6.962;2022-10-14T01:35:21;6.97;;;5.47;;
44486;SDS011;30191;50.908;6.962;2022-10-14T01:40:54;8.93;;;6.20;;
44486;SDS011;30191;50.908;6.962;2022-10-14T01:43:28;9.88;;;5.68;;
44486;SDS011;30191;50.908;6.962;2022-10-14T01:45:56;10.90;;;6.28;;
44486;SDS011;30191;50.908;6.962;2022-10-14T01:48:26;8.00;;;6.25;;
44486;SDS011;30191;50.908;6.962;2022-10-14T01:50:58;12.20;;;6.50;;
44486;SDS011;30191;50.908;6.962;2022-10-14T01:53:28;8.13;;;5.90;;
44486;SDS011;30191;50.908;6.962;2022-10-14T01:56:02;8.77;;;6.10;;
44486;SDS011;30191;50.908;6.962;2022-10-14T01:58:29;9.57;;;5.72;;
44486;SDS011;30191;50.908;6.962;2022-10-14T02:00:56;10.82;;;6.18;;
44486;SDS011;30191;50.908;6.962;2022-10-14T02:03:22;9.18;;;6.60;;
44486;SDS011;30191;50.908;6.962;2022-10-14T02:13:50;8.98;;;5.55;;
44486;SDS011;30191;50.908;6.962;2022-10-14T02:16:31;9.82;;;5.50;;
44486;SDS011;30191;50.908;6.962;2022-10-14T02:19:14;9.30;;;5.82;;
44486;SDS011;30191;50.908;6.962;2022-10-14T02:21:52;7.10;;;5.50;;
44486;SDS011;30191;50.908;6.962;2022-10-14T02:24:38;8.10;;;5.43;;
44486;SDS011;30191;50.908;6.962;2022-10-14T02:27:10;8.30;;;5.05;;
44486;SDS011;30191;50.908;6.962;2022-10-14T02:32:06;7.10;;;5.25;;
44486;SDS011;30191;50.908;6.962;2022-10-14T02:34:34;6.88;;;4.90;;
44486;SDS011;30191;50.908;6.962;2022-10-14T02:37:01;8.50;;;5.60;;
44486;SDS011;30191;50.908;6.962;2022-10-14T02:39:39;7.38;;;4.97;;
44486;SDS011;30191;50.908;6.962;2022-10-14T02:42:08;8.40;;;5.32;;
44486;SDS011;30191;50.908;6.962;2022-10-14T02:44:34;8.45;;;4.90;;
44486;SDS011;30191;50.908;6.962;2022-10-14T02:46:59;9.20;;;5.38;;
44486;SDS011;30191;50.908;6.962;2022-10-14T02:49:25;5.65;;;5.05;;
44486;SDS011;30191;50.908;6.962;2022-10-14T02:51:51;6.72;;;5.07;;
44486;SDS011;30191;50.908;6.962;2022-10-14T02:54:16;5.82;;;5.28;;
44486;SDS011;30191;50.908;6.962;2022-10-14T02:56:42;8.25;;;4.90;;
44486;SDS011;30191;50.908;6.962;2022-10-14T02:59:07;6.35;;;5.13;;
44486;SDS011;30191;50.908;6.962;2022-10-14T03:01:33;7.43;;;5.07;;
44486;SDS011;30191;50.908;6.962;2022-10-14T03:03:59;8.18;;;5.32;;
44486;SDS011;30191;50.908;6.962;2022-10-14T03:06:24;7.75;;;5.28;;
44486;SDS011;30191;50.908;6.962;2022-10-14T03:08:50;6.60;;;5.22;;
44486;SDS011;30191;50.908;6.962;2022-10-14T03:11:16;7.93;;;4.68;;
44486;SDS011;30191;50.908;6.962;2022-10-14T03:13:41;7.22;;;5.10;;
44486;SDS011;30191;50.908;6.962;2022-10-14T03:16:07;10.35;;;4.75;;
44486;SDS011;30191;50.908;6.962;2022-10-14T03:18:32;6.07;;;4.85;;
44486;SDS011;30191;50.908;6.962;2022-10-14T03:20:58;9.18;;;4.68;;
44486;SDS011;30191;50.908;6.962;2022-10-14T03:23:24;5.55;;;4.95;;
44486;SDS011;30191;50.908;6.962;2022-10-14T03:25:49;5.32;;;4.82;;
44486;SDS011;30191;50.908;6.962;2022-10-14T03:28:15;7.75;;;4.78;;
44486;SDS011;30191;50.908;6.962;2022-10-14T03:30:41;6.82;;;4.40;;
44486;SDS011;30191;50.908;6.962;2022-10-14T03:33:07;7.15;;;4.93;;
44486;SDS011;30191;50.908;6.962;2022-10-14T03:35:32;6.97;;;4.78;;
44486;SDS011;30191;50.908;6.962;2022-10-14T03:37:58;9.77;;;4.78;;
44486;SDS011;30191;50.908;6.962;2022-10-14T03:40:26;6.57;;;4.65;;
44486;SDS011;30191;50.908;6.962;2022-10-14T03:42:52;6.88;;;4.57;;
44486;SDS011;30191;50.908;6.962;2022-10-14T03:45:18;6.78;;;4.43;;
44486;SDS011;30191;50.908;6.962;2022-10-14T03:47:43;5.90;;;4.55;;
44486;SDS011;30191;50.908;6.962;2022-10-14T03:50:09;6.53;;;4.80;;
44486;SDS011;30191;50.908;6.962;2022-10-14T03:52:34;5.53;;;4.07;;
44486;SDS011;30191;50.908;6.962;2022-10-14T03:55:00;6.78;;;4.80;;
44486;SDS011;30191;50.908;6.962;2022-10-14T03:57:26;5.53;;;4.75;;
44486;SDS011;30191;50.908;6.962;2022-10-14T03:59:52;6.32;;;4.03;;
44486;SDS011;30191;50.908;6.962;2022-10-14T04:02:17;5.25;;;4.75;;
44486;SDS011;30191;50.908;6.962;2022-10-14T04:04:43;5.88;;;4.38;;
44486;SDS011;30191;50.908;6.962;2022-10-14T04:07:08;10.00;;;4.95;;
44486;SDS011;30191;50.908;6.962;2022-10-14T04:09:34;5.80;;;4.25;;
44486;SDS011;30191;50.908;6.962;2022-10-14T04:12:00;4.45;;;3.80;;
44486;SDS011;30191;50.908;6.962;2022-10-14T04:14:25;6.18;;;4.40;;
44486;SDS011;30191;50.908;6.962;2022-10-14T04:16:51;4.25;;;3.85;;
44486;SDS011;30191;50.908;6.962;2022-10-14T04:19:17;5.43;;;4.10;;
44486;SDS011;30191;50.908;6.962;2022-10-14T04:21:43;7.03;;;3.90;;
44486;SDS011;30191;50.908;6.962;2022-10-14T04:24:09;5.15;;;3.50;;
44486;SDS011;30191;50.908;6.962;2022-10-14T04:26:34;5.50;;;3.78;;
44486;SDS011;30191;50.908;6.962;2022-10-14T04:29:00;7.03;;;3.50;;
44486;SDS011;30191;50.908;6.962;2022-10-14T04:31:26;3.90;;;3.45;;
44486;SDS011;30191;50.908;6.962;2022-10-14T04:33:51;5.47;;;3.33;;
44486;SDS011;30191;50.908;6.962;2022-10-14T04:36:17;5.20;;;3.10;;
44486;SDS011;30191;50.908;6.962;2022-10-14T04:38:43;3.47;;;3.17;;
44486;SDS011;30191;50.908;6.962;2022-10-14T04:41:08;3.55;;;3.10;;
44486;SDS011;30191;50.908;6.962;2022-10-14T04:43:34;5.43;;;3.28;;
44486;SDS011;30191;50.908;6.962;2022-10-14T04:46:00;4.90;;;3.22;;
44486;SDS011;30191;50.908;6.962;2022-10-14T04:48:25;5.30;;;3.05;;
44486;SDS011;30191;50.908;6.962;2022-10-14T04:50:51;3.13;;;2.80;;
44486;SDS011;30191;50.908;6.962;2022-10-14T04:53:17;4.43;;;2.92;;
44486;SDS011;30191;50.908;6.962;2022-10-14T04:55:44;4.78;;;2.80;;
44486;SDS011;30191;50.908;6.962;2022-10-14T04:58:11;27.52;;;3.78;;
44486;SDS011;30191;50.908;6.962;2022-10-14T05:00:37;11.70;;;3.92;;
44486;SDS011;30191;50.908;6.962;2022-10-14T05:03:03;6.15;;;2.80;;
44486;SDS011;30191;50.908;6.962;2022-10-14T05:05:28;3.78;;;2.40;;
44486;SDS011;30191;50.908;6.962;2022-10-14T05:07:54;4.70;;;2.05;;
44486;SDS011;30191;50.908;6.962;2022-10-14T05:10:20;3.63;;;2.45;;
44486;SDS011;30191;50.908;6.962;2022-10-14T05:12:46;2.42;;;2.17;;
44486;SDS011;30191;50.908;6.962;2022-10-14T05:15:12;3.92;;;2.30;;
44486;SDS011;30191;50.908;6.962;2022-10-14T05:17:38;4.32;;;2.38;;
44486;SDS011;30191;50.908;6.962;2022-10-14T05:20:04;5.22;;;2.35;;
44486;SDS011;30191;50.908;6.962;2022-10-14T05:22:30;4.55;;;2.70;;
44486;SDS011;30191;50.908;6.962;2022-10-14T05:24:56;4.95;;;2.67;;
44486;SDS011;30191;50.908;6.962;2022-10-14T05:27:21;5.65;;;3.00;;
44486;SDS011;30191;50.908;6.962;2022-10-14T05:29:47;10.38;;;2.83;;
44486;SDS011;30191;50.908;6.962;2022-10-14T05:32:13;4.97;;;3.35;;
44486;SDS011;30191;50.908;6.962;2022-10-14T05:34:39;8.77;;;3.30;;
44486;SDS011;30191;50.908;6.962;2022-10-14T05:37:05;4.78;;;2.85;;
44486;SDS011;30191;50.908;6.962;2022-10-14T05:39:31;5.68;;;3.20;;
44486;SDS011;30191;50.908;6.962;2022-10-14T05:41:56;4.25;;;3.00;;
44486;SDS011;30191;50.908;6.962;2022-10-14T05:44:22;4.80;;;3.42;;
44486;SDS011;30191;50.908;6.962;2022-10-14T05:46:48;4.00;;;3.25;;
44486;SDS011;30191;50.908;6.962;2022-10-14T05:49:14;5.95;;;3.83;;
44486;SDS011;30191;50.908;6.962;2022-10-14T05:51:40;4.00;;;3.28;;
44486;SDS011;30191;50.908;6.962;2022-10-14T05:54:06;4.95;;;3.55;;
44486;SDS011;30191;50.908;6.962;2022-10-14T05:56:31;5.65;;;3.80;;
44486;SDS011;30191;50.908;6.962;2022-10-14T05:58:57;5.88;;;3.95;;
44486;SDS011;30191;50.908;6.962;2022-10-14T06:01:23;6.22;;;3.88;;
44486;SDS011;30191;50.908;6.962;2022-10-14T06:03:49;6.28;;;4.13;;
44486;SDS011;30191;50.908;6.962;2022-10-14T06:06:15;7.20;;;3.72;;
44486;SDS011;30191;50.908;6.962;2022-10-14T06:08:42;5.60;;;3.92;;
44486;SDS011;30191;50.908;6.962;2022-10-14T06:11:09;6.00;;;3.72;;
44486;SDS011;30191;50.908;6.962;2022-10-14T06:13:35;7.70;;;3.10;;
44486;SDS011;30191;50.908;6.962;2022-10-14T06:16:05;4.97;;;3.63;;
44486;SDS011;30191;50.908;6.962;2022-10-14T06:18:32;6.53;;;3.83;;
44486;SDS011;30191;50.908;6.962;2022-10-14T06:20:58;7.03;;;3.65;;
44486;SDS011;30191;50.908;6.962;2022-10-14T06:23:24;4.72;;;3.53;;
44486;SDS011;30191;50.908;6.962;2022-10-14T06:25:51;5.28;;;3.75;;
44486;SDS011;30191;50.908;6.962;2022-10-14T06:28:18;5.90;;;3.90;;
44486;SDS011;30191;50.908;6.962;2022-10-14T06:30:52;5.07;;;3.72;;
44486;SDS011;30191;50.908;6.962;2022-10-14T06:33:19;7.20;;;3.92;;
44486;SDS011;30191;50.908;6.962;2022-10-14T06:35:45;7.80;;;3.85;;
44486;SDS011;30191;50.908;6.962;2022-10-14T06:38:11;4.40;;;3.67;;
44486;SDS011;30191;50.908;6.962;2022-10-14T06:40:37;5.18;;;3.58;;
44486;SDS011;30191;50.908;6.962;2022-10-14T06:43:03;7.22;;;3.50;;
44486;SDS011;30191;50.908;6.962;2022-10-14T06:45:28;6.10;;;4.10;;
44486;SDS011;30191;50.908;6.962;2022-10-14T06:47:55;6.40;;;4.18;;
44486;SDS011;30191;50.908;6.962;2022-10-14T06:50:20;4.53;;;4.00;;
44486;SDS011;30191;50.908;6.962;2022-10-14T06:52:46;5.28;;;3.83;;
44486;SDS011;30191;50.908;6.962;2022-10-14T06:55:12;5.35;;;3.80;;
44486;SDS011;30191;50.908;6.962;2022-10-14T06:57:38;6.40;;;3.67;;
44486;SDS011;30191;50.908;6.962;2022-10-14T07:00:04;11.23;;;3.83;;
44486;SDS011;30191;50.908;6.962;2022-10-14T07:02:31;6.45;;;3.90;;
44486;SDS011;30191;50.908;6.962;2022-10-14T07:04:57;6.15;;;5.13;;
44486;SDS011;30191;50.908;6.962;2022-10-14T07:07:22;8.60;;;4.22;;
44486;SDS011;30191;50.908;6.962;2022-10-14T07:09:48;6.40;;;3.72;;
44486;SDS011;30191;50.908;6.962;2022-10-14T07:12:13;5.05;;;4.07;;
44486;SDS011;30191;50.908;6.962;2022-10-14T07:14:39;4.97;;;3.65;;
44486;SDS011;30191;50.908;6.962;2022-10-14T07:17:08;5.55;;;3.92;;
44486;SDS011;30191;50.908;6.962;2022-10-14T07:19:34;4.90;;;4.38;;
44486;SDS011;30191;50.908;6.962;2022-10-14T07:21:59;5.28;;;4.78;;
44486;SDS011;30191;50.908;6.962;2022-10-14T07:24:25;5.40;;;4.38;;
44486;SDS011;30191;50.908;6.962;2022-10-14T07:26:51;5.88;;;4.35;;
44486;SDS011;30191;50.908;6.962;2022-10-14T07:29:16;5.47;;;4.03;;
44486;SDS011;30191;50.908;6.962;2022-10-14T07:31:42;6.05;;;4.38;;
44486;SDS011;30191;50.908;6.962;2022-10-14T07:34:08;6.13;;;4.68;;
44486;SDS011;30191;50.908;6.962;2022-10-14T07:36:34;4.80;;;4.15;;
44486;SDS011;30191;50.908;6.962;2022-10-14T07:39:00;6.28;;;4.07;;
44486;SDS011;30191;50.908;6.962;2022-10-14T07:41:26;7.45;;;4.45;;
44486;SDS011;30191;50.908;6.962;2022-10-14T07:43:53;7.40;;;4.53;;
44486;SDS011;30191;50.908;6.962;2022-10-14T07:46:22;4.63;;;4.20;;
44486;SDS011;30191;50.908;6.962;2022-10-14T07:49:01;6.13;;;4.25;;
44486;SDS011;30191;50.908;6.962;2022-10-14T07:51:32;6.80;;;4.53;;
44486;SDS011;30191;50.908;6.962;2022-10-14T07:53:59;6.13;;;5.55;;
44486;SDS011;30191;50.908;6.962;2022-10-14T07:56:26;6.72;;;5.05;;
44486;SDS011;30191;50.908;6.962;2022-10-14T07:58:52;7.78;;;4.78;;
44486;SDS011;30191;50.908;6.962;2022-10-14T08:01:18;5.63;;;5.13;;
44486;SDS011;30191;50.908;6.962;2022-10-14T08:03:45;5.45;;;4.95;;
44486;SDS011;30191;50.908;6.962;2022-10-14T08:06:12;7.53;;;5.32;;
44486;SDS011;30191;50.908;6.962;2022-10-14T08:08:38;6.05;;;4.40;;
44486;SDS011;30191;50.908;6.962;2022-10-14T08:13:33;6.57;;;4.90;;
44486;SDS011;30191;50.908;6.962;2022-10-14T08:15:59;8.35;;;4.80;;
44486;SDS011;30191;50.908;6.962;2022-10-14T08:18:25;7.18;;;4.32;;
44486;SDS011;30191;50.908;6.962;2022-10-14T08:20:52;4.63;;;4.10;;
44486;SDS011;30191;50.908;6.962;2022-10-14T08:23:17;7.38;;;4.55;;
44486;SDS011;30191;50.908;6.962;2022-10-14T08:25:43;5.38;;;4.40;;
44486;SDS011;30191;50.908;6.962;2022-10-14T08:28:10;7.20;;;4.80;;
44486;SDS011;30191;50.908;6.962;2022-10-14T08:30:36;6.28;;;4.57;;
44486;SDS011;30191;50.908;6.962;2022-10-14T08:33:01;6.07;;;4.30;;
44486;SDS011;30191;50.908;6.962;2022-10-14T08:35:27;5.68;;;4.40;;
44486;SDS011;30191;50.908;6.962;2022-10-14T08:37:53;8.45;;;4.40;;
44486;SDS011;30191;50.908;6.962;2022-10-14T08:40:29;5.82;;;5.07;;
44486;SDS011;30191;50.908;6.962;2022-10-14T08:43:42;6.82;;;4.22;;
44486;SDS011;30191;50.908;6.962;2022-10-14T08:48:58;6.15;;;4.60;;
44486;SDS011;30191;50.908;6.962;2022-10-14T08:51:34;6.35;;;4.32;;
44486;SDS011;30191;50.908;6.962;2022-10-14T08:54:04;6.80;;;4.60;;
44486;SDS011;30191;50.908;6.962;2022-10-14T08:56:35;6.47;;;4.32;;
44486;SDS011;30191;50.908;6.962;2022-10-14T08:59:05;8.35;;;4.72;;
44486;SDS011;30191;50.908;6.962;2022-10-14T09:01:38;6.82;;;4.60;;
44486;SDS011;30191;50.908;6.962;2022-10-14T09:04:12;5.95;;;5.07;;
44486;SDS011;30191;50.908;6.962;2022-10-14T09:06:39;5.60;;;4.85;;
44486;SDS011;30191;50.908;6.962;2022-10-14T09:11:40;8.82;;;4.95;;
44486;SDS011;30191;50.908;6.962;2022-10-14T09:16:37;6.75;;;5.38;;
44486;SDS011;30191;50.908;6.962;2022-10-14T09:21:43;6.35;;;4.82;;
44486;SDS011;30191;50.908;6.962;2022-10-14T09:24:14;7.00;;;4.85;;
44486;SDS011;30191;50.908;6.962;2022-10-14T09:26:45;8.82;;;4.70;;
44486;SDS011;30191;50.908;6.962;2022-10-14T09:29:28;7.72;;;4.38;;
44486;SDS011;30191;50.908;6.962;2022-10-14T09:32:01;5.97;;;4.13;;
44486;SDS011;30191;50.908;6.962;2022-10-14T09:34:48;6.30;;;4.57;;
44486;SDS011;30191;50.908;6.962;2022-10-14T09:37:28;5.80;;;4.05;;
44486;SDS011;30191;50.908;6.962;2022-10-14T09:42:47;7.85;;;4.45;;
44486;SDS011;30191;50.908;6.962;2022-10-14T09:51:06;4.90;;;4.35;;
44486;SDS011;30191;50.908;6.962;2022-10-14T09:53:58;6.20;;;4.32;;
44486;SDS011;30191;50.908;6.962;2022-10-14T09:58:52;7.43;;;4.95;;
44486;SDS011;30191;50.908;6.962;2022-10-14T10:01:22;7.32;;;4.30;;
44486;SDS011;30191;50.908;6.962;2022-10-14T10:03:50;5.93;;;4.95;;
44486;SDS011;30191;50.908;6.962;2022-10-14T10:06:17;8.57;;;4.97;;
44486;SDS011;30191;50.908;6.962;2022-10-14T10:11:31;6.75;;;5.28;;
44486;SDS011;30191;50.908;6.962;2022-10-14T10:16:45;7.47;;;5.15;;
44486;SDS011;30191;50.908;6.962;2022-10-14T10:21:52;10.55;;;5.72;;
44486;SDS011;30191;50.908;6.962;2022-10-14T10:24:19;7.28;;;5.55;;
44486;SDS011;30191;50.908;6.962;2022-10-14T10:26:46;10.00;;;5.75;;
44486;SDS011;30191;50.908;6.962;2022-10-14T10:29:22;9.65;;;5.90;;
44486;SDS011;30191;50.908;6.962;2022-10-14T10:35:05;7.63;;;6.28;;
44486;SDS011;30191;50.908;6.962;2022-10-14T10:38:07;10.90;;;5.45;;
44486;SDS011;30191;50.908;6.962;2022-10-14T10:46:02;9.30;;;6.35;;
44486;SDS011;30191;50.908;6.962;2022-10-14T10:49:22;9.35;;;6.45;;
44486;SDS011;30191;50.908;6.962;2022-10-14T10:51:59;10.10;;;6.05;;
44486;SDS011;30191;50.908;6.962;2022-10-14T10:58:01;9.38;;;7.20;;
44486;SDS011;30191;50.908;6.962;2022-10-14T11:01:38;10.77;;;7.00;;
44486;SDS011;30191;50.908;6.962;2022-10-14T11:09:34;8.80;;;7.43;;
44486;SDS011;30191;50.908;6.962;2022-10-14T11:20:24;9.88;;;7.93;;
44486;SDS011;30191;50.908;6.962;2022-10-14T11:25:58;11.60;;;7.80;;
44486;SDS011;30191;50.908;6.962;2022-10-14T11:43:25;9.25;;;8.10;;
44486;SDS011;30191;50.908;6.962;2022-10-14T11:46:10;9.60;;;7.65;;
44486;SDS011;30191;50.908;6.962;2022-10-14T11:48:52;12.02;;;7.85;;
44486;SDS011;30191;50.908;6.962;2022-10-14T11:54:06;9.85;;;7.53;;
44486;SDS011;30191;50.908;6.962;2022-10-14T11:59:27;10.32;;;8.00;;
44486;SDS011;30191;50.908;6.962;2022-10-14T12:05:00;10.52;;;7.35;;
44486;SDS011;30191;50.908;6.962;2022-10-14T12:11:03;9.40;;;6.88;;
44486;SDS011;30191;50.908;6.962;2022-10-14T12:13:38;7.95;;;7.15;;
44486;SDS011;30191;50.908;6.962;2022-10-14T12:16:14;9.35;;;6.97;;
44486;SDS011;30191;50.908;6.962;2022-10-14T12:18:43;7.47;;;6.57;;
44486;SDS011;30191;50.908;6.962;2022-10-14T12:21:24;8.20;;;6.97;;
44486;SDS011;30191;50.908;6.962;2022-10-14T12:24:14;7.38;;;6.70;;
44486;SDS011;30191;50.908;6.962;2022-10-14T12:26:50;7.82;;;7.05;;
44486;SDS011;30191;50.908;6.962;2022-10-14T12:29:25;7.30;;;6.60;;
44486;SDS011;30191;50.908;6.962;2022-10-14T12:34:45;10.65;;;6.78;;
44486;SDS011;30191;50.908;6.962;2022-10-14T12:40:15;8.20;;;7.38;;
44486;SDS011;30191;50.908;6.962;2022-10-14T12:47:42;8.68;;;6.80;;
44486;SDS011;30191;50.908;6.962;2022-10-14T12:52:45;7.05;;;6.30;;
44486;SDS011;30191;50.908;6.962;2022-10-14T12:55:19;9.10;;;6.22;;
44486;SDS011;30191;50.908;6.962;2022-10-14T12:57:54;11.30;;;6.47;;
44486;SDS011;30191;50.908;6.962;2022-10-14T13:02:50;8.27;;;6.43;;
44486;SDS011;30191;50.908;6.962;2022-10-14T13:10:40;7.18;;;5.60;;
44486;SDS011;30191;50.908;6.962;2022-10-14T13:18:49;7.43;;;5.10;;
44486;SDS011;30191;50.908;6.962;2022-10-14T13:38:01;6.82;;;4.68;;
44486;SDS011;30191;50.908;6.962;2022-10-14T13:40:37;5.05;;;4.50;;
44486;SDS011;30191;50.908;6.962;2022-10-14T13:43:25;5.90;;;4.78;;
44486;SDS011;30191;50.908;6.962;2022-10-14T13:48:32;5.57;;;4.35;;
44486;SDS011;30191;50.908;6.962;2022-10-14T13:53:52;5.10;;;4.60;;
44486;SDS011;30191;50.908;6.962;2022-10-14T13:56:20;7.55;;;4.93;;
44486;SDS011;30191;50.908;6.962;2022-10-14T13:58:49;8.15;;;4.95;;
44486;SDS011;30191;50.908;6.962;2022-10-14T14:01:16;7.15;;;4.53;;
44486;SDS011;30191;50.908;6.962;2022-10-14T14:03:44;4.53;;;4.03;;
44486;SDS011;30191;50.908;6.962;2022-10-14T14:06:15;7.10;;;4.90;;
44486;SDS011;30191;50.908;6.962;2022-10-14T14:08:47;7.57;;;4.60;;
44486;SDS011;30191;50.908;6.962;2022-10-14T14:11:17;5.55;;;4.50;;
44486;SDS011;30191;50.908;6.962;2022-10-14T14:13:48;8.05;;;4.60;;
44486;SDS011;30191;50.908;6.962;2022-10-14T14:16:19;11.15;;;5.30;;
44486;SDS011;30191;50.908;6.962;2022-10-14T14:18:47;6.28;;;4.55;;
44486;SDS011;30191;50.908;6.962;2022-10-14T14:21:14;8.98;;;5.20;;
44486;SDS011;30191;50.908;6.962;2022-10-14T14:23:53;7.55;;;5.22;;
44486;SDS011;30191;50.908;6.962;2022-10-14T14:26:25;5.22;;;4.72;;
44486;SDS011;30191;50.908;6.962;2022-10-14T14:28:58;5.95;;;4.65;;
44486;SDS011;30191;50.908;6.962;2022-10-14T14:31:28;6.28;;;4.80;;
44486;SDS011;30191;50.908;6.962;2022-10-14T14:34:18;6.18;;;4.50;;
44486;SDS011;30191;50.908;6.962;2022-10-14T14:39:19;9.95;;;4.80;;
44486;SDS011;30191;50.908;6.962;2022-10-14T14:41:50;12.70;;;4.90;;
44486;SDS011;30191;50.908;6.962;2022-10-14T14:44:19;6.97;;;4.68;;
44486;SDS011;30191;50.908;6.962;2022-10-14T14:46:47;7.50;;;4.22;;
44486;SDS011;30191;50.908;6.962;2022-10-14T14:49:15;7.00;;;4.55;;
44486;SDS011;30191;50.908;6.962;2022-10-14T14:51:46;8.80;;;4.40;;
44486;SDS011;30191;50.908;6.962;2022-10-14T14:54:16;9.13;;;5.45;;
44486;SDS011;30191;50.908;6.962;2022-10-14T14:56:44;6.88;;;5.22;;
44486;SDS011;30191;50.908;6.962;2022-10-14T14:59:25;8.38;;;6.07;;
44486;SDS011;30191;50.908;6.962;2022-10-14T15:01:59;5.68;;;4.32;;
44486;SDS011;30191;50.908;6.962;2022-10-14T15:04:26;9.75;;;4.57;;
44486;SDS011;30191;50.908;6.962;2022-10-14T15:06:58;4.97;;;4.28;;
44486;SDS011;30191;50.908;6.962;2022-10-14T15:09:34;5.60;;;4.13;;
44486;SDS011;30191;50.908;6.962;2022-10-14T15:12:03;5.28;;;3.97;;
44486;SDS011;30191;50.908;6.962;2022-10-14T15:14:45;5.68;;;3.80;;
44486;SDS011;30191;50.908;6.962;2022-10-14T15:19:47;6.75;;;4.10;;
44486;SDS011;30191;50.908;6.962;2022-10-14T15:24:55;4.30;;;3.60;;
44486;SDS011;30191;50.908;6.962;2022-10-14T15:27:29;6.40;;;3.45;;
44486;SDS011;30191;50.908;6.962;2022-10-14T15:33:15;4.43;;;3.53;;
44486;SDS011;30191;50.908;6.962;2022-10-14T15:35:44;4.32;;;3.90;;
44486;SDS011;30191;50.908;6.962;2022-10-14T15:38:11;4.50;;;4.10;;
44486;SDS011;30191;50.908;6.962;2022-10-14T15:40:38;5.03;;;3.33;;
44486;SDS011;30191;50.908;6.962;2022-10-14T15:43:08;3.80;;;3.40;;
44486;SDS011;30191;50.908;6.962;2022-10-14T15:45:37;6.60;;;3.33;;
44486;SDS011;30191;50.908;6.962;2022-10-14T15:48:03;4.68;;;3.75;;
44486;SDS011;30191;50.908;6.962;2022-10-14T15:50:30;3.92;;;2.85;;
44486;SDS011;30191;50.908;6.962;2022-10-14T15:52:57;3.13;;;2.80;;
44486;SDS011;30191;50.908;6.962;2022-10-14T15:55:24;2.97;;;2.67;;
44486;SDS011;30191;50.908;6.962;2022-10-14T15:57:51;4.00;;;2.72;;
44486;SDS011;30191;50.908;6.962;2022-10-14T16:00:18;5.45;;;3.22;;
44486;SDS011;30191;50.908;6.962;2022-10-14T16:02:46;4.32;;;2.83;;
44486;SDS011;30191;50.908;6.962;2022-10-14T16:05:13;3.85;;;2.50;;
44486;SDS011;30191;50.908;6.962;2022-10-14T16:07:40;3.20;;;2.53;;
44486;SDS011;30191;50.908;6.962;2022-10-14T16:10:06;2.63;;;2.42;;
44486;SDS011;30191;50.908;6.962;2022-10-14T16:12:33;2.70;;;2.45;;
44486;SDS011;30191;50.908;6.962;2022-10-14T16:14:59;2.75;;;2.20;;
44486;SDS011;30191;50.908;6.962;2022-10-14T16:17:26;4.35;;;2.63;;
44486;SDS011;30191;50.908;6.962;2022-10-14T16:19:52;4.05;;;2.75;;
44486;SDS011;30191;50.908;6.962;2022-10-14T16:22:17;4.30;;;3.50;;
44486;SDS011;30191;50.908;6.962;2022-10-14T16:24:43;5.38;;;3.25;;
44486;SDS011;30191;50.908;6.962;2022-10-14T16:27:10;4.82;;;3.90;;
44486;SDS011;30191;50.908;6.962;2022-10-14T16:29:35;6.18;;;4.22;;
44486;SDS011;30191;50.908;6.962;2022-10-14T16:32:01;5.45;;;4.05;;
44486;SDS011;30191;50.908;6.962;2022-10-14T16:34:27;6.07;;;3.67;;
44486;SDS011;30191;50.908;6.962;2022-10-14T16:36:52;3.63;;;3.05;;
44486;SDS011;30191;50.908;6.962;2022-10-14T16:39:18;4.57;;;3.08;;
44486;SDS011;30191;50.908;6.962;2022-10-14T16:41:44;4.50;;;4.05;;
44486;SDS011;30191;50.908;6.962;2022-10-14T16:44:10;5.03;;;3.55;;
44486;SDS011;30191;50.908;6.962;2022-10-14T16:46:54;4.47;;;3.50;;
44486;SDS011;30191;50.908;6.962;2022-10-14T16:49:39;3.28;;;2.95;;
44486;SDS011;30191;50.908;6.962;2022-10-14T16:52:07;4.68;;;3.30;;
44486;SDS011;30191;50.908;6.962;2022-10-14T16:54:32;4.18;;;3.30;;
44486;SDS011;30191;50.908;6.962;2022-10-14T16:56:58;3.67;;;2.67;;
44486;SDS011;30191;50.908;6.962;2022-10-14T16:59:24;3.35;;;2.45;;
44486;SDS011;30191;50.908;6.962;2022-10-14T17:01:50;4.05;;;2.30;;
44486;SDS011;30191;50.908;6.962;2022-10-14T17:04:16;2.45;;;2.13;;
44486;SDS011;30191;50.908;6.962;2022-10-14T17:06:43;6.82;;;2.42;;
44486;SDS011;30191;50.908;6.962;2022-10-14T17:09:09;3.13;;;2.47;;
44486;SDS011;30191;50.908;6.962;2022-10-14T17:11:35;3.33;;;2.38;;
44486;SDS011;30191;50.908;6.962;2022-10-14T17:14:01;2.78;;;2.33;;
44486;SDS011;30191;50.908;6.962;2022-10-14T17:16:27;3.35;;;2.50;;
44486;SDS011;30191;50.908;6.962;2022-10-14T17:18:56;3.30;;;2.80;;
44486;SDS011;30191;50.908;6.962;2022-10-14T17:21:23;2.58;;;2.38;;
44486;SDS011;30191;50.908;6.962;2022-10-14T17:23:52;5.22;;;2.53;;
44486;SDS011;30191;50.908;6.962;2022-10-14T17:26:17;4.18;;;2.70;;
44486;SDS011;30191;50.908;6.962;2022-10-14T17:28:44;3.58;;;2.65;;
44486;SDS011;30191;50.908;6.962;2022-10-14T17:31:12;3.22;;;2.50;;
44486;SDS011;30191;50.908;6.962;2022-10-14T17:33:40;3.40;;;2.40;;
44486;SDS011;30191;50.908;6.962;2022-10-14T17:36:06;3.80;;;2.33;;
44486;SDS011;30191;50.908;6.962;2022-10-14T17:38:37;3.17;;;2.15;;
44486;SDS011;30191;50.908;6.962;2022-10-14T17:41:04;3.47;;;2.83;;
44486;SDS011;30191;50.908;6.962;2022-10-14T17:43:31;3.45;;;2.72;;
44486;SDS011;30191;50.908;6.962;2022-10-14T17:46:00;4.43;;;2.20;;
44486;SDS011;30191;50.908;6.962;2022-10-14T17:48:28;3.35;;;2.70;;
44486;SDS011;30191;50.908;6.962;2022-10-14T17:50:54;4.88;;;2.95;;
44486;SDS011;30191;50.908;6.962;2022-10-14T17:53:20;4.07;;;2.70;;
44486;SDS011;30191;50.908;6.962;2022-10-14T17:55:46;3.45;;;2.95;;
44486;SDS011;30191;50.908;6.962;2022-10-14T17:58:12;5.25;;;3.47;;
44486;SDS011;30191;50.908;6.962;2022-10-14T18:00:38;3.38;;;3.08;;